Time;durP1;ratioP1;P1;durP2;ratioP2;P2;SDS_P1;SDS_P2;PMS_P1;PMS_P2;Temp;Humidity;BMP_temperature;BMP_pressure;BME280_temperature;BME280_humidity;BME280_pressure;Samples;Min_cycle;Max_cycle;Signal;HPM_P1;HPM_P2
2024/01/18 00:00:47;;;;;;;99.93;57.13;;;14.90;52.20;;;;;;4891819;28;94634;-79
2024/01/18 00:03:14;;;;;;;100.82;56.75;;;15.00;52.20;;;;;;4894667;28;95472;-78
2024/01/18 00:05:39;;;;;;;99.45;56.65;;;14.90;52.10;;;;;;4891026;28;97753;-76
2024/01/18 00:08:05;;;;;;;99.30;56.47;;;14.90;52.30;;;;;;4894772;28;94716;-76
2024/01/18 00:10:31;;;;;;;98.07;56.75;;;14.90;52.30;;;;;;4891228;28;95238;-77
2024/01/18 00:12:57;;;;;;;100.32;56.92;;;14.80;52.30;;;;;;4898956;28;99026;-77
2024/01/18 00:15:23;;;;;;;98.20;55.90;;;14.90;52.30;;;;;;4896989;28;96980;-78
2024/01/18 00:17:49;;;;;;;99.18;56.60;;;14.80;52.40;;;;;;4896218;28;95018;-77
2024/01/18 00:20:15;;;;;;;98.00;56.50;;;14.80;52.40;;;;;;4898465;28;95319;-76
2024/01/18 00:22:41;;;;;;;100.07;56.67;;;14.80;52.50;;;;;;4897575;28;95002;-77
2024/01/18 00:25:07;;;;;;;99.18;56.67;;;14.70;52.50;;;;;;4898821;28;95809;-78
2024/01/18 00:27:33;;;;;;;99.43;56.95;;;14.70;52.50;;;;;;4898595;28;98749;-79
2024/01/18 00:29:59;;;;;;;98.10;56.60;;;14.70;52.50;;;;;;4901870;28;94677;-79
2024/01/18 00:32:25;;;;;;;98.28;56.60;;;14.70;52.50;;;;;;4900287;28;95742;-80
2024/01/18 00:34:51;;;;;;;97.63;56.55;;;14.60;52.40;;;;;;4897455;28;96050;-81
2024/01/18 00:37:17;;;;;;;98.85;56.63;;;14.60;52.40;;;;;;4903221;28;94251;-81
2024/01/18 00:39:43;;;;;;;99.13;56.67;;;14.60;52.40;;;;;;4901269;28;98373;-81
2024/01/18 00:42:09;;;;;;;98.75;56.80;;;14.60;52.60;;;;;;4896888;28;98545;-81
2024/01/18 00:44:35;;;;;;;97.90;56.47;;;14.60;52.60;;;;;;4899879;28;95405;-78
2024/01/18 00:47:00;;;;;;;101.68;56.67;;;14.60;52.70;;;;;;4899749;28;95422;-78
2024/01/18 00:49:26;;;;;;;99.55;57.00;;;14.50;52.60;;;;;;4893901;28;96478;-80
2024/01/18 00:51:52;;;;;;;102.88;56.22;;;14.50;52.70;;;;;;4898068;28;94523;-76
2024/01/18 00:54:17;;;;;;;98.13;56.53;;;14.50;52.70;;;;;;4895084;28;95742;-77
2024/01/18 00:56:43;;;;;;;97.88;56.88;;;14.50;52.70;;;;;;4900990;28;94324;-79
2024/01/18 00:59:09;;;;;;;98.40;56.30;;;14.40;52.70;;;;;;4897687;28;95170;-80
2024/01/18 01:01:34;;;;;;;98.10;56.40;;;14.40;52.80;;;;;;4897234;28;96958;-80
2024/01/18 01:04:00;;;;;;;98.80;56.60;;;14.40;52.70;;;;;;4896454;28;95740;-80
2024/01/18 01:06:26;;;;;;;98.63;56.83;;;14.40;52.70;;;;;;4900858;28;96109;-81
2024/01/18 01:08:51;;;;;;;99.70;56.53;;;14.40;52.80;;;;;;4897888;28;94177;-80
2024/01/18 01:11:17;;;;;;;98.35;56.08;;;14.40;52.90;;;;;;4897793;28;94784;-80
2024/01/18 01:13:44;;;;;;;97.82;55.83;;;14.30;53.20;;;;;;4893796;28;94479;-80
2024/01/18 01:16:10;;;;;;;98.63;56.25;;;14.30;52.80;;;;;;4898545;28;94627;-80
2024/01/18 01:18:37;;;;;;;98.88;56.55;;;14.30;52.90;;;;;;4897897;28;94128;-80
2024/01/18 01:21:04;;;;;;;99.40;56.13;;;14.30;52.90;;;;;;4901009;28;95606;-80
2024/01/18 01:23:29;;;;;;;98.10;56.38;;;14.30;52.90;;;;;;4903147;28;94325;-80
2024/01/18 01:25:56;;;;;;;98.43;56.20;;;14.30;52.90;;;;;;4897382;28;94568;-80
2024/01/18 01:28:22;;;;;;;97.70;56.15;;;14.20;53.00;;;;;;4895995;28;97403;-81
2024/01/18 01:30:48;;;;;;;98.57;56.72;;;14.20;53.00;;;;;;4899466;28;96140;-81
2024/01/18 01:33:13;;;;;;;97.53;56.47;;;14.20;53.00;;;;;;4902651;28;94522;-82
2024/01/18 01:35:39;;;;;;;96.93;56.20;;;14.20;53.10;;;;;;4899671;28;94680;-80
2024/01/18 01:38:04;;;;;;;96.95;56.17;;;14.10;53.00;;;;;;4900313;28;94667;-79
2024/01/18 01:40:30;;;;;;;98.75;56.05;;;14.10;53.00;;;;;;4905706;28;94732;-80
2024/01/18 01:42:56;;;;;;;97.82;56.42;;;14.10;53.10;;;;;;4909273;28;93899;-79
2024/01/18 01:45:21;;;;;;;97.18;56.53;;;14.10;53.10;;;;;;4904399;28;93409;-80
2024/01/18 01:47:47;;;;;;;99.60;56.67;;;14.10;53.10;;;;;;4898004;28;95408;-80
2024/01/18 01:50:13;;;;;;;97.32;56.10;;;14.10;53.70;;;;;;4899634;28;94072;-80
2024/01/18 01:52:41;;;;;;;96.85;55.88;;;14.10;53.20;;;;;;4897475;28;96160;-80
2024/01/18 01:55:08;;;;;;;98.97;56.17;;;14.00;53.20;;;;;;4899850;28;94924;-80
2024/01/18 01:57:35;;;;;;;97.93;55.60;;;14.00;53.10;;;;;;4897733;28;96149;-81
2024/01/18 02:00:02;;;;;;;97.88;55.95;;;14.00;53.20;;;;;;4900959;28;94660;-80
2024/01/18 02:02:27;;;;;;;98.50;56.10;;;14.00;53.20;;;;;;4898576;28;94174;-81
2024/01/18 02:04:54;;;;;;;97.85;55.90;;;14.00;53.20;;;;;;4899357;28;94651;-80
2024/01/18 02:07:22;;;;;;;97.63;56.30;;;14.00;53.20;;;;;;4900787;28;94921;-80
2024/01/18 02:09:48;;;;;;;97.50;56.60;;;14.00;53.30;;;;;;4922657;28;94424;-79
2024/01/18 02:12:14;;;;;;;96.55;55.53;;;13.90;53.20;;;;;;4926082;28;93881;-79
2024/01/18 02:14:40;;;;;;;97.97;56.15;;;13.90;53.30;;;;;;4923071;28;93946;-80
2024/01/18 02:17:06;;;;;;;97.65;56.00;;;13.90;53.30;;;;;;4906624;28;95373;-79
2024/01/18 02:19:32;;;;;;;97.65;56.05;;;13.90;53.40;;;;;;4902794;28;95453;-80
2024/01/18 02:22:01;;;;;;;96.78;56.03;;;13.90;53.50;;;;;;4896615;28;95235;-77
2024/01/18 02:24:32;;;;;;;97.72;56.13;;;13.80;53.50;;;;;;4902789;28;94458;-76
2024/01/18 02:26:58;;;;;;;97.18;55.75;;;13.80;53.50;;;;;;4904293;28;98158;-78
2024/01/18 02:29:24;;;;;;;96.32;55.15;;;13.80;53.50;;;;;;4928007;28;94134;-78
2024/01/18 02:31:50;;;;;;;97.63;55.78;;;13.80;53.50;;;;;;4928603;28;93721;-78
2024/01/18 02:34:17;;;;;;;97.45;55.90;;;13.70;53.50;;;;;;4908692;28;93693;-76
2024/01/18 02:36:44;;;;;;;98.30;55.95;;;13.80;53.60;;;;;;4894692;28;95664;-76
2024/01/18 02:39:10;;;;;;;95.22;55.72;;;13.80;53.60;;;;;;4900002;28;96093;-76
2024/01/18 02:41:36;;;;;;;97.90;55.83;;;13.70;53.50;;;;;;4895251;28;96421;-75
2024/01/18 02:44:02;;;;;;;98.55;56.25;;;13.70;53.60;;;;;;4896816;28;94982;-75
2024/01/18 02:46:35;;;;;;;95.82;55.58;;;13.70;53.60;;;;;;4893167;28;97995;-77
2024/01/18 02:49:01;;;;;;;97.63;55.97;;;13.60;53.60;;;;;;4889440;28;94218;-77
2024/01/18 02:51:26;;;;;;;96.68;56.08;;;13.60;53.60;;;;;;4894456;28;95767;-77
2024/01/18 02:53:52;;;;;;;97.47;55.72;;;13.60;53.60;;;;;;4900917;28;93639;-78
2024/01/18 02:56:20;;;;;;;97.15;55.78;;;13.60;53.60;;;;;;4900484;28;94940;-77
2024/01/18 02:58:45;;;;;;;95.80;55.58;;;13.60;53.70;;;;;;4896067;28;94444;-76
2024/01/18 03:01:11;;;;;;;95.50;55.55;;;13.60;53.80;;;;;;4896905;28;95234;-77
2024/01/18 03:03:36;;;;;;;97.60;56.47;;;13.60;53.70;;;;;;4896024;28;94194;-77
2024/01/18 03:06:02;;;;;;;97.30;56.00;;;13.50;53.70;;;;;;4904058;28;95741;-77
2024/01/18 03:08:28;;;;;;;95.50;55.28;;;13.50;53.70;;;;;;4910528;28;97083;-78
2024/01/18 03:10:54;;;;;;;96.07;56.33;;;13.50;53.70;;;;;;4923008;28;93544;-78
2024/01/18 03:13:19;;;;;;;97.55;56.20;;;13.50;53.80;;;;;;4925391;28;93598;-77
2024/01/18 03:15:45;;;;;;;96.90;56.45;;;13.50;53.80;;;;;;4922261;28;94885;-78
2024/01/18 03:18:11;;;;;;;97.55;55.70;;;13.50;53.80;;;;;;4907261;28;94429;-76
2024/01/18 03:20:36;;;;;;;95.97;55.38;;;13.50;53.80;;;;;;4899111;28;94702;-77
2024/01/18 03:23:03;;;;;;;97.22;55.95;;;13.50;53.80;;;;;;4895036;28;94305;-78
2024/01/18 03:25:29;;;;;;;95.43;55.60;;;13.50;53.80;;;;;;4898333;28;97702;-78
2024/01/18 03:27:54;;;;;;;96.15;55.15;;;13.50;53.80;;;;;;4896711;28;95826;-78
2024/01/18 03:30:20;;;;;;;95.88;55.38;;;13.50;53.70;;;;;;4901383;28;95464;-79
2024/01/18 03:32:46;;;;;;;96.95;56.03;;;13.50;53.70;;;;;;4896012;28;94522;-78
2024/01/18 03:35:13;;;;;;;96.05;55.85;;;13.40;53.80;;;;;;4899990;28;97728;-79
2024/01/18 03:37:38;;;;;;;95.60;55.85;;;13.40;53.90;;;;;;4901463;28;95425;-78
2024/01/18 03:40:08;;;;;;;97.45;55.90;;;13.40;53.80;;;;;;4901477;28;94634;-78
2024/01/18 03:42:34;;;;;;;96.10;55.42;;;13.40;53.90;;;;;;4895478;28;94719;-78
2024/01/18 03:45:01;;;;;;;96.57;55.65;;;13.40;53.90;;;;;;4900621;28;95011;-77
2024/01/18 03:47:26;;;;;;;96.68;56.00;;;13.40;53.90;;;;;;4896631;28;95491;-81
2024/01/18 03:49:52;;;;;;;97.47;55.70;;;13.40;53.90;;;;;;4898257;28;95595;-79
2024/01/18 03:52:18;;;;;;;97.07;55.78;;;13.40;54.00;;;;;;4899056;28;95400;-78
2024/01/18 03:54:43;;;;;;;95.32;55.78;;;13.30;53.90;;;;;;4900291;28;98992;-78
2024/01/18 03:57:09;;;;;;;96.30;55.17;;;13.30;54.00;;;;;;4899645;28;95604;-78
2024/01/18 03:59:35;;;;;;;94.88;55.38;;;13.30;54.10;;;;;;4903335;28;95351;-78
2024/01/18 04:02:00;;;;;;;97.05;55.85;;;13.20;54.00;;;;;;4901356;28;95129;-79
2024/01/18 04:04:26;;;;;;;97.28;56.08;;;13.20;54.00;;;;;;4898528;28;94530;-77
2024/01/18 04:06:52;;;;;;;97.18;56.50;;;13.20;54.10;;;;;;4894367;28;98506;-79
2024/01/18 04:09:17;;;;;;;97.65;56.15;;;13.20;54.20;;;;;;4896070;28;94992;-77
2024/01/18 04:11:43;;;;;;;95.70;55.33;;;13.20;54.20;;;;;;4899198;28;93573;-77
2024/01/18 04:14:09;;;;;;;94.75;55.40;;;13.20;54.30;;;;;;4895786;28;96408;-77
2024/01/18 04:16:35;;;;;;;96.18;55.97;;;13.20;54.30;;;;;;4900197;28;94838;-77
2024/01/18 04:19:00;;;;;;;96.68;55.85;;;13.10;54.20;;;;;;4899313;28;95951;-77
2024/01/18 04:21:26;;;;;;;95.57;55.40;;;13.10;54.30;;;;;;4897650;28;94738;-76
2024/01/18 04:23:52;;;;;;;95.85;55.47;;;13.20;54.30;;;;;;4899773;28;94910;-76
2024/01/18 04:26:18;;;;;;;95.35;55.45;;;13.20;54.30;;;;;;4896654;28;95294;-76
2024/01/18 04:28:44;;;;;;;97.07;56.45;;;13.10;54.30;;;;;;4905301;28;94369;-76
2024/01/18 04:31:09;;;;;;;97.03;55.50;;;13.10;54.30;;;;;;4899032;28;94359;-77
2024/01/18 04:33:35;;;;;;;95.45;55.28;;;13.10;54.30;;;;;;4900470;28;95437;-80
2024/01/18 04:36:01;;;;;;;96.85;55.88;;;13.10;54.40;;;;;;4898679;28;97410;-81
2024/01/18 04:38:26;;;;;;;94.70;54.63;;;13.10;54.40;;;;;;4906190;28;94051;-78
2024/01/18 04:40:52;;;;;;;94.80;55.28;;;13.10;54.40;;;;;;4907279;28;94107;-77
2024/01/18 04:43:18;;;;;;;95.95;55.75;;;13.10;54.40;;;;;;4902713;28;98154;-81
2024/01/18 04:45:44;;;;;;;94.85;55.78;;;13.10;54.60;;;;;;4903354;28;98415;-76
2024/01/18 04:48:10;;;;;;;97.13;55.80;;;13.00;54.50;;;;;;4900940;28;94720;-77
2024/01/18 04:50:36;;;;;;;96.43;55.95;;;13.00;54.60;;;;;;4903352;28;94185;-78
2024/01/18 04:53:02;;;;;;;96.47;55.60;;;13.00;54.60;;;;;;4902415;28;95739;-78
2024/01/18 04:55:28;;;;;;;97.90;56.00;;;13.00;54.50;;;;;;4904773;28;94327;-77
2024/01/18 04:57:54;;;;;;;96.57;56.10;;;13.00;54.50;;;;;;4904198;28;93657;-77
2024/01/18 05:00:19;;;;;;;96.63;56.10;;;13.00;55.10;;;;;;4902459;28;93827;-77
2024/01/18 05:02:45;;;;;;;95.72;55.38;;;13.00;54.50;;;;;;4922318;28;94163;-78
2024/01/18 05:05:11;;;;;;;95.65;55.53;;;12.90;54.30;;;;;;4899665;28;94904;-79
2024/01/18 05:07:41;;;;;;;96.32;55.80;;;12.90;54.40;;;;;;4900411;28;95144;-80
2024/01/18 05:10:11;;;;;;;95.32;55.78;;;12.90;54.30;;;;;;4902882;28;93733;-79
2024/01/18 05:12:37;;;;;;;96.25;56.00;;;12.90;54.50;;;;;;4897999;28;97117;-80
2024/01/18 05:15:04;;;;;;;94.85;55.92;;;12.90;54.50;;;;;;4900967;28;94796;-77
2024/01/18 05:17:35;;;;;;;95.63;55.63;;;12.90;54.60;;;;;;4895764;28;94451;-77
2024/01/18 05:20:06;;;;;;;94.55;55.33;;;12.80;54.50;;;;;;4898449;28;95454;-79
2024/01/18 05:22:32;;;;;;;94.85;55.15;;;12.80;54.60;;;;;;4898536;28;95483;-79
2024/01/18 05:25:02;;;;;;;96.55;55.72;;;12.80;54.70;;;;;;4897493;28;97391;-77
2024/01/18 05:27:29;;;;;;;96.00;55.20;;;12.80;54.70;;;;;;4896671;28;93620;-77
2024/01/18 05:29:56;;;;;;;94.78;55.83;;;12.80;54.70;;;;;;4902197;28;94078;-77
2024/01/18 05:32:22;;;;;;;96.05;55.22;;;12.80;54.70;;;;;;4898186;28;96063;-77
2024/01/18 05:34:48;;;;;;;94.43;55.40;;;12.70;54.60;;;;;;4897593;28;95724;-78
2024/01/18 05:37:15;;;;;;;96.85;55.47;;;12.70;54.70;;;;;;4896309;28;95321;-77
2024/01/18 05:39:40;;;;;;;95.43;55.50;;;12.70;54.70;;;;;;4898393;28;95348;-76
2024/01/18 05:42:06;;;;;;;95.65;55.75;;;12.70;54.80;;;;;;4898112;28;94780;-77
2024/01/18 05:44:32;;;;;;;96.43;55.83;;;12.70;54.90;;;;;;4897090;28;99419;-80
2024/01/18 05:46:58;;;;;;;94.75;55.05;;;12.60;54.80;;;;;;4894762;28;94387;-77
2024/01/18 05:49:24;;;;;;;96.25;55.15;;;12.60;54.90;;;;;;4899795;28;93598;-82
2024/01/18 05:51:50;;;;;;;93.50;55.05;;;12.60;54.90;;;;;;4898100;28;94598;-80
2024/01/18 05:54:16;;;;;;;94.40;55.55;;;12.60;54.90;;;;;;4895007;28;94485;-80
2024/01/18 05:56:42;;;;;;;95.68;55.38;;;12.60;55.00;;;;;;4898531;28;95345;-79
2024/01/18 05:59:09;;;;;;;95.82;55.55;;;12.60;55.00;;;;;;4898656;28;94543;-80
2024/01/18 06:01:35;;;;;;;93.68;55.17;;;12.60;55.00;;;;;;4901013;28;95667;-79
2024/01/18 06:04:00;;;;;;;95.72;55.33;;;12.60;55.10;;;;;;4901982;28;95167;-80
2024/01/18 06:06:26;;;;;;;95.70;55.65;;;12.60;55.10;;;;;;4899071;28;94498;-81
2024/01/18 06:08:52;;;;;;;94.97;55.47;;;12.50;55.20;;;;;;4901868;28;93795;-80
2024/01/18 06:11:19;;;;;;;95.30;55.35;;;12.50;55.20;;;;;;4897315;28;94631;-80
2024/01/18 06:13:45;;;;;;;95.30;55.08;;;12.50;55.40;;;;;;4892647;28;97558;-78
2024/01/18 06:16:11;;;;;;;97.57;55.95;;;12.50;55.60;;;;;;4892942;28;95236;-76
2024/01/18 06:18:37;;;;;;;95.80;55.30;;;12.40;55.40;;;;;;4894873;28;95360;-76
2024/01/18 06:21:06;;;;;;;96.20;55.22;;;12.40;55.40;;;;;;4894884;28;95888;-78
2024/01/18 06:23:32;;;;;;;95.20;55.30;;;12.40;55.50;;;;;;4900206;28;97238;-80
2024/01/18 06:25:58;;;;;;;95.18;55.75;;;12.30;55.60;;;;;;4899339;28;94763;-76
2024/01/18 06:28:23;;;;;;;95.57;55.63;;;12.30;55.70;;;;;;4896063;28;95338;-77
2024/01/18 06:30:49;;;;;;;98.15;57.30;;;12.30;56.00;;;;;;4893113;28;94808;-80
2024/01/18 06:33:15;;;;;;;108.97;69.22;;;12.30;56.50;;;;;;4899980;28;94236;-80
2024/01/18 06:35:40;;;;;;;114.35;71.10;;;12.30;56.20;;;;;;4895322;28;93996;-77
2024/01/18 06:38:06;;;;;;;110.30;68.75;;;12.40;55.60;;;;;;4897040;28;93538;-78
2024/01/18 06:40:32;;;;;;;108.40;66.95;;;12.60;55.40;;;;;;4892886;28;95078;-77
2024/01/18 06:42:57;;;;;;;108.25;67.45;;;12.60;55.10;;;;;;4896739;28;94484;-80
2024/01/18 06:45:23;;;;;;;109.25;66.50;;;12.60;54.90;;;;;;4911338;28;94907;-79
2024/01/18 06:47:49;;;;;;;109.55;69.88;;;12.70;54.80;;;;;;4920492;28;93827;-79
2024/01/18 06:50:16;;;;;;;110.78;68.43;;;12.70;54.80;;;;;;4915928;28;94936;-80
2024/01/18 06:52:41;;;;;;;109.57;66.72;;;12.80;55.00;;;;;;4906843;28;94359;-79
2024/01/18 06:55:10;;;;;;;108.03;66.75;;;12.80;55.00;;;;;;4891382;28;94451;-77
2024/01/18 06:57:36;;;;;;;108.05;66.57;;;12.80;55.00;;;;;;4892889;28;95420;-79
2024/01/18 07:00:03;;;;;;;109.93;66.07;;;12.90;55.00;;;;;;4899993;28;94934;-79
2024/01/18 07:02:29;;;;;;;108.85;64.47;;;12.90;54.80;;;;;;4899607;28;95197;-78
2024/01/18 07:04:55;;;;;;;110.70;65.03;;;12.90;54.50;;;;;;4898420;28;94514;-78
2024/01/18 07:07:20;;;;;;;105.45;64.03;;;12.90;54.40;;;;;;4892282;28;95077;-78
2024/01/18 07:09:46;;;;;;;106.70;63.95;;;12.90;54.30;;;;;;4897391;28;95608;-79
2024/01/18 07:12:12;;;;;;;105.22;63.33;;;13.00;54.20;;;;;;4891107;28;95610;-78
2024/01/18 07:14:37;;;;;;;107.72;63.38;;;12.90;54.00;;;;;;4892193;28;94017;-82
2024/01/18 07:17:03;;;;;;;103.80;62.55;;;12.90;54.10;;;;;;4899598;28;94451;-84
2024/01/18 07:19:29;;;;;;;159.98;88.32;;;12.90;54.00;;;;;;4883276;28;98581;-78
2024/01/18 07:21:54;;;;;;;175.65;100.95;;;13.00;54.40;;;;;;4890802;28;96531;-81
2024/01/18 07:24:23;;;;;;;154.57;86.57;;;13.20;53.90;;;;;;4900621;28;95093;-81
2024/01/18 07:26:48;;;;;;;145.73;84.53;;;13.30;53.30;;;;;;4901347;28;94043;-79
2024/01/18 07:29:14;;;;;;;143.52;80.75;;;13.40;53.20;;;;;;4900711;28;95083;-80
2024/01/18 07:31:40;;;;;;;138.13;79.32;;;13.50;53.00;;;;;;4894859;28;94828;-81
2024/01/18 07:34:05;;;;;;;138.30;78.70;;;13.60;52.80;;;;;;4903704;28;95213;-80
2024/01/18 07:36:32;;;;;;;133.23;77.30;;;13.70;52.50;;;;;;4900008;28;94298;-80
2024/01/18 07:38:57;;;;;;;130.60;76.82;;;13.80;52.40;;;;;;4896456;28;98111;-79
2024/01/18 07:41:23;;;;;;;130.95;74.35;;;13.90;52.30;;;;;;4895729;28;94725;-78
2024/01/18 07:43:49;;;;;;;129.38;73.03;;;14.00;52.30;;;;;;4898498;28;94320;-80
2024/01/18 07:46:14;;;;;;;126.10;72.25;;;14.00;52.10;;;;;;4900819;28;94643;-81
2024/01/18 07:48:40;;;;;;;127.55;71.60;;;14.10;52.10;;;;;;4899547;28;94999;-78
2024/01/18 07:51:05;;;;;;;123.80;69.28;;;14.10;52.00;;;;;;4899618;28;95038;-75
2024/01/18 07:53:31;;;;;;;125.47;70.45;;;14.20;52.00;;;;;;4892968;28;94902;-75
2024/01/18 07:55:57;;;;;;;119.88;68.68;;;14.30;52.00;;;;;;4896575;28;94749;-76
2024/01/18 07:58:22;;;;;;;123.35;68.57;;;14.40;51.60;;;;;;4892762;28;96726;-78
2024/01/18 08:00:50;;;;;;;120.65;68.88;;;14.50;51.70;;;;;;4913442;28;99864;-80
2024/01/18 08:03:16;;;;;;;120.30;68.40;;;14.50;52.00;;;;;;4905634;28;95182;-79
2024/01/18 08:05:41;;;;;;;119.80;68.90;;;14.50;52.10;;;;;;4898677;28;95293;-84
2024/01/18 08:08:07;;;;;;;121.20;69.28;;;14.50;51.30;;;;;;4896806;28;98030;-81
2024/01/18 08:10:33;;;;;;;118.45;67.25;;;14.50;51.40;;;;;;4895722;28;96111;-80
2024/01/18 08:13:00;;;;;;;118.05;66.93;;;14.50;51.10;;;;;;4898851;28;95304;-76
2024/01/18 08:15:26;;;;;;;118.65;65.93;;;14.60;51.00;;;;;;4882842;28;93797;-76
2024/01/18 08:17:52;;;;;;;117.20;65.88;;;14.60;51.00;;;;;;4891670;28;95435;-77
2024/01/18 08:20:17;;;;;;;115.60;64.60;;;14.60;51.00;;;;;;4888687;28;95320;-73
2024/01/18 08:22:43;;;;;;;114.78;64.25;;;14.70;50.90;;;;;;4887804;28;96319;-76
2024/01/18 08:25:13;;;;;;;118.25;64.18;;;14.80;51.20;;;;;;4886955;28;96303;-75
2024/01/18 08:27:43;;;;;;;113.38;63.35;;;14.80;51.40;;;;;;4882893;28;96306;-76
2024/01/18 08:30:09;;;;;;;117.18;64.53;;;15.00;51.20;;;;;;4889627;28;96734;-79
2024/01/18 08:32:34;;;;;;;112.82;62.92;;;15.00;51.20;;;;;;4893494;28;94840;-77
2024/01/18 08:35:06;;;;;;;107.88;62.08;;;15.00;50.90;;;;;;4903266;28;94296;-77
2024/01/18 08:37:35;;;;;;;110.25;62.35;;;15.00;51.10;;;;;;4902697;28;95954;-78
2024/01/18 08:40:02;;;;;;;110.10;61.90;;;15.00;50.80;;;;;;4898425;28;97491;-71
2024/01/18 08:42:28;;;;;;;111.35;62.50;;;15.10;50.90;;;;;;4899111;28;94643;-74
2024/01/18 08:44:53;;;;;;;111.97;62.42;;;15.10;50.70;;;;;;4899198;28;94875;-76
2024/01/18 08:47:19;;;;;;;110.45;62.35;;;15.10;50.70;;;;;;4895150;28;95555;-75
2024/01/18 08:49:45;;;;;;;112.28;62.33;;;15.10;50.30;;;;;;4895372;28;95701;-76
2024/01/18 08:52:10;;;;;;;109.90;61.53;;;15.10;50.10;;;;;;4895143;28;95789;-76
2024/01/18 08:54:36;;;;;;;109.85;61.03;;;15.20;50.10;;;;;;4897220;28;94966;-80
2024/01/18 08:57:02;;;;;;;110.97;61.13;;;15.30;49.90;;;;;;4899172;28;95684;-80
2024/01/18 08:59:28;;;;;;;115.32;60.90;;;15.30;49.60;;;;;;4892250;28;97340;-74
2024/01/18 09:01:54;;;;;;;107.07;60.25;;;15.40;49.50;;;;;;4894400;28;94583;-75
2024/01/18 09:04:20;;;;;;;109.15;61.15;;;15.50;49.70;;;;;;4900143;28;94313;-75
2024/01/18 09:06:46;;;;;;;110.53;60.50;;;15.50;49.80;;;;;;4894862;28;94820;-74
2024/01/18 09:09:13;;;;;;;105.40;59.60;;;15.50;49.60;;;;;;4900050;28;95860;-75
2024/01/18 09:11:39;;;;;;;106.75;60.38;;;15.70;49.50;;;;;;4892089;28;95688;-74
2024/01/18 09:14:05;;;;;;;105.85;58.55;;;15.70;49.10;;;;;;4895053;23;96723;-41
2024/01/18 09:16:31;;;;;;;107.65;58.63;;;15.70;48.90;;;;;;4903236;23;95546;-67
2024/01/18 09:18:58;;;;;;;105.18;58.67;;;15.80;49.00;;;;;;4922470;28;94559;-68
2024/01/18 09:21:24;;;;;;;107.32;59.30;;;15.80;49.20;;;;;;4912005;28;94246;-68
2024/01/18 09:23:50;;;;;;;104.97;58.33;;;15.80;48.90;;;;;;4910171;28;95275;-73
2024/01/18 09:26:16;;;;;;;107.60;59.15;;;15.80;49.00;;;;;;4905694;28;98952;-68
2024/01/18 09:28:43;;;;;;;106.72;58.38;;;15.80;48.60;;;;;;4909478;28;94369;-69
2024/01/18 09:31:09;;;;;;;107.18;58.65;;;15.90;48.70;;;;;;4907398;28;95247;-70
2024/01/18 09:33:37;;;;;;;107.45;58.17;;;15.90;49.30;;;;;;4909888;28;95173;-71
2024/01/18 09:36:04;;;;;;;105.68;58.28;;;15.90;49.30;;;;;;4910949;28;95813;-71
2024/01/18 09:38:30;;;;;;;105.45;58.47;;;16.00;49.40;;;;;;4940115;22;95254;-77
2024/01/18 09:41:03;;;;;;;107.22;59.38;;;16.00;49.10;;;;;;4899377;28;94891;-77
2024/01/18 09:43:37;;;;;;;110.07;58.85;;;16.10;49.30;;;;;;4896648;28;94651;-82
2024/01/18 09:46:08;;;;;;;107.95;58.70;;;16.10;49.10;;;;;;4902962;28;94895;-77
2024/01/18 09:48:37;;;;;;;111.75;59.38;;;16.10;48.90;;;;;;4893629;28;95107;-76
2024/01/18 09:51:06;;;;;;;104.70;58.25;;;16.10;49.00;;;;;;4886525;28;95282;-78
2024/01/18 09:53:32;;;;;;;107.15;58.47;;;16.20;49.00;;;;;;4903146;28;94424;-75
2024/01/18 09:56:23;;;;;;;105.15;58.97;;;16.30;49.00;;;;;;4886073;28;98960;-76
2024/01/18 09:58:50;;;;;;;108.33;58.80;;;16.40;49.30;;;;;;4899085;28;95124;-78
2024/01/18 10:01:20;;;;;;;107.43;58.20;;;16.30;49.00;;;;;;4899532;28;95507;-78
2024/01/18 10:03:48;;;;;;;105.40;57.95;;;16.40;48.60;;;;;;4896723;28;95350;-79
2024/01/18 10:06:15;;;;;;;110.15;58.58;;;16.50;48.50;;;;;;4901190;28;95385;-77
2024/01/18 10:08:40;;;;;;;106.00;57.72;;;16.60;48.80;;;;;;4901282;28;99037;-79
2024/01/18 10:11:06;;;;;;;107.43;58.10;;;16.70;48.90;;;;;;4900951;28;94987;-83
2024/01/18 10:14:07;;;;;;;106.22;58.42;;;16.80;49.00;;;;;;4900538;28;94238;-80
2024/01/18 10:16:36;;;;;;;107.63;57.70;;;16.80;49.00;;;;;;4842986;28;95182;-85
2024/01/18 10:19:03;;;;;;;107.35;58.05;;;16.90;49.10;;;;;;4888724;28;94524;-83
2024/01/18 10:21:31;;;;;;;106.75;58.10;;;16.90;49.00;;;;;;4898646;28;95636;-78
2024/01/18 10:23:57;;;;;;;107.30;58.03;;;17.00;49.20;;;;;;4904490;28;94857;-82
2024/01/18 10:26:28;;;;;;;107.30;57.78;;;17.00;49.10;;;;;;4903035;28;95559;-86
2024/01/18 10:28:54;;;;;;;108.63;57.78;;;17.00;49.30;;;;;;4900341;28;97190;-81
2024/01/18 10:31:20;;;;;;;106.68;57.45;;;17.00;49.10;;;;;;4902297;28;95192;-82
2024/01/18 10:33:49;;;;;;;106.30;58.10;;;17.00;49.10;;;;;;4902392;28;94300;-81
2024/01/18 10:36:15;;;;;;;107.82;58.10;;;17.10;49.30;;;;;;4903278;28;99038;-81
2024/01/18 10:38:41;;;;;;;109.00;58.15;;;17.10;49.20;;;;;;4894745;28;96956;-84
2024/01/18 10:41:13;;;;;;;107.07;57.67;;;17.20;49.10;;;;;;4896379;28;94412;-81
2024/01/18 10:43:40;;;;;;;109.22;57.45;;;17.20;49.10;;;;;;4901787;28;94014;-79
2024/01/18 10:46:05;;;;;;;105.20;57.28;;;17.30;49.00;;;;;;4900208;28;94938;-78
2024/01/18 10:48:35;;;;;;;108.93;57.67;;;17.30;48.70;;;;;;4901950;28;95675;-77
2024/01/18 10:51:04;;;;;;;108.03;56.55;;;17.30;48.60;;;;;;4895876;28;96006;-78
2024/01/18 10:53:34;;;;;;;106.25;57.03;;;17.30;48.90;;;;;;4903598;28;94692;-78
2024/01/18 10:56:01;;;;;;;108.03;57.50;;;17.30;48.00;;;;;;4900289;28;96322;-79
2024/01/18 10:58:27;;;;;;;106.72;56.35;;;17.30;48.30;;;;;;4895436;28;96626;-80
2024/01/18 11:00:54;;;;;;;106.68;56.53;;;17.30;48.00;;;;;;4898326;28;94824;-80
2024/01/18 11:03:20;;;;;;;106.65;56.45;;;17.30;47.70;;;;;;4896460;28;94665;-83
2024/01/18 11:05:47;;;;;;;105.43;56.65;;;17.20;47.80;;;;;;4916501;28;94353;-81
2024/01/18 11:08:13;;;;;;;105.75;56.85;;;17.30;48.00;;;;;;4914731;28;96719;-81
2024/01/18 11:10:42;;;;;;;107.90;56.40;;;17.40;48.00;;;;;;4894744;28;96626;-79
2024/01/18 11:13:09;;;;;;;105.63;56.38;;;17.40;47.90;;;;;;4893562;28;94299;-80
2024/01/18 11:15:37;;;;;;;106.65;56.95;;;17.40;47.70;;;;;;4898036;28;95795;-81
2024/01/18 11:18:09;;;;;;;105.88;56.80;;;17.40;47.70;;;;;;4890953;28;95600;-85
2024/01/18 11:20:58;;;;;;;109.72;56.78;;;17.50;47.90;;;;;;4892942;28;95801;-86
2024/01/18 11:23:26;;;;;;;104.88;56.22;;;17.50;48.40;;;;;;4895322;28;97052;-82
2024/01/18 11:25:52;;;;;;;112.25;57.35;;;17.60;48.30;;;;;;4893808;28;94879;-77
2024/01/18 11:28:25;;;;;;;107.13;56.92;;;17.70;48.20;;;;;;4900082;28;94894;-81
2024/01/18 11:30:52;;;;;;;107.78;56.42;;;17.70;48.20;;;;;;4896644;28;94606;-81
2024/01/18 11:33:18;;;;;;;107.20;56.75;;;17.70;48.40;;;;;;4894695;28;93863;-81
2024/01/18 11:35:44;;;;;;;107.60;56.38;;;17.70;48.60;;;;;;4899182;28;95239;-79
2024/01/18 11:38:18;;;;;;;105.97;56.40;;;17.70;48.40;;;;;;4898738;28;96424;-77
2024/01/18 11:40:44;;;;;;;105.03;56.03;;;17.60;48.30;;;;;;4898888;28;95702;-77
2024/01/18 11:43:13;;;;;;;108.85;57.88;;;17.70;48.30;;;;;;4894806;28;95684;-76
2024/01/18 11:45:41;;;;;;;114.80;61.67;;;17.70;48.40;;;;;;4897890;28;96069;-76
2024/01/18 11:48:07;;;;;;;113.47;61.70;;;17.70;48.60;;;;;;4890401;28;95249;-75
2024/01/18 11:50:33;;;;;;;116.47;62.58;;;17.80;48.70;;;;;;4900888;28;96551;-76
2024/01/18 11:53:00;;;;;;;112.35;61.80;;;17.80;48.50;;;;;;4899316;28;94179;-79
2024/01/18 11:55:30;;;;;;;114.10;62.17;;;17.80;48.50;;;;;;4896651;28;94899;-78
2024/01/18 11:57:56;;;;;;;112.60;62.25;;;17.80;48.90;;;;;;4892698;28;94508;-79
2024/01/18 12:00:22;;;;;;;114.60;62.63;;;17.90;48.90;;;;;;4892670;28;95157;-82
2024/01/18 12:02:48;;;;;;;115.00;61.50;;;17.80;48.90;;;;;;4894777;28;95005;-77
2024/01/18 12:05:16;;;;;;;114.13;61.38;;;17.90;49.00;;;;;;4897911;28;98601;-78
2024/01/18 12:07:43;;;;;;;111.50;60.95;;;18.00;49.00;;;;;;4894914;28;98475;-77
2024/01/18 12:10:10;;;;;;;111.53;60.70;;;17.90;49.10;;;;;;4902436;28;95248;-84
2024/01/18 12:12:39;;;;;;;114.10;60.55;;;17.90;49.30;;;;;;4900356;28;94961;-81
2024/01/18 12:15:06;;;;;;;109.22;59.28;;;17.80;48.90;;;;;;4884095;28;98315;-77
2024/01/18 12:17:32;;;;;;;111.03;59.47;;;17.80;49.00;;;;;;4898287;28;96291;-79
2024/01/18 12:19:58;;;;;;;110.30;59.33;;;17.70;49.00;;;;;;4898643;28;96091;-77